Time;durP1;ratioP1;P1;durP2;ratioP2;P2;SDS_P1;SDS_P2;PMS_P1;PMS_P2;Temp;Humidity;BMP_temperature;BMP_pressure;BME280_temperature;BME280_humidity;BME280_pressure;Samples;Min_cycle;Max_cycle;Signal;HPM_P1;HPM_P2
2021/10/05 00:00:37;;;;;;;13.07;5.28;;;21.60;64.50;;;;;;5053907;28;20056;-75
2021/10/05 00:03:05;;;;;;;16.40;5.40;;;21.60;64.80;;;;;;5053784;28;20470;-74
2021/10/05 00:05:31;;;;;;;12.50;5.03;;;21.50;65.30;;;;;;5053695;28;20048;-75
2021/10/05 00:07:57;;;;;;;13.50;5.32;;;21.40;65.40;;;;;;5053872;28;20099;-75
2021/10/05 00:10:23;;;;;;;14.13;5.30;;;21.30;65.10;;;;;;5054631;28;20077;-75
2021/10/05 00:12:49;;;;;;;14.60;4.25;;;21.30;65.50;;;;;;5055020;28;20021;-74
2021/10/05 00:15:16;;;;;;;10.55;4.13;;;21.10;65.20;;;;;;5053719;28;20025;-74
2021/10/05 00:17:42;;;;;;;11.18;4.45;;;21.00;65.00;;;;;;5053565;28;20075;-74
2021/10/05 00:20:09;;;;;;;10.90;3.85;;;21.00;65.00;;;;;;5053372;28;20061;-75
2021/10/05 00:22:35;;;;;;;11.98;4.15;;;20.90;65.10;;;;;;5053487;28;20127;-76
2021/10/05 00:25:01;;;;;;;9.07;3.90;;;20.90;65.80;;;;;;5053274;28;20386;-74
2021/10/05 00:27:26;;;;;;;10.43;4.30;;;20.90;65.70;;;;;;5053445;28;20462;-75
2021/10/05 00:29:52;;;;;;;13.38;4.75;;;20.80;65.80;;;;;;5053122;28;20032;-74
2021/10/05 00:32:18;;;;;;;8.23;3.50;;;20.80;66.10;;;;;;5053214;28;20018;-75
2021/10/05 00:34:43;;;;;;;10.10;3.83;;;20.70;66.30;;;;;;5053148;28;20029;-74
2021/10/05 00:37:09;;;;;;;6.72;2.83;;;20.70;66.70;;;;;;5053166;28;20428;-74
2021/10/05 00:39:35;;;;;;;6.20;2.97;;;20.70;66.70;;;;;;5053118;28;20025;-74
2021/10/05 00:42:01;;;;;;;7.38;3.25;;;20.60;67.10;;;;;;5053178;28;20041;-74
2021/10/05 00:44:37;;;;;;;9.63;3.25;;;20.60;67.50;;;;;;5055462;28;20028;-74
2021/10/05 00:47:08;;;;;;;6.35;3.15;;;20.50;67.70;;;;;;5053690;28;20029;-75
2021/10/05 00:49:35;;;;;;;6.85;3.05;;;20.40;68.10;;;;;;5055953;28;20036;-75
2021/10/05 00:52:01;;;;;;;7.22;2.88;;;20.40;68.40;;;;;;5055655;28;20028;-75
2021/10/05 00:54:30;;;;;;;8.35;3.38;;;20.40;68.20;;;;;;5055594;28;20428;-75
2021/10/05 00:56:55;;;;;;;6.85;2.88;;;20.40;68.20;;;;;;5053442;28;20539;-73
2021/10/05 00:59:21;;;;;;;5.35;2.70;;;20.40;68.50;;;;;;5051839;28;20119;-76
2021/10/05 01:01:47;;;;;;;5.80;2.50;;;20.50;68.50;;;;;;5052934;28;20056;-76
2021/10/05 01:04:13;;;;;;;7.25;2.70;;;20.50;68.40;;;;;;5053235;28;20021;-76
2021/10/05 01:06:57;;;;;;;5.63;2.88;;;20.50;68.10;;;;;;5051387;28;20125;-76
2021/10/05 01:09:23;;;;;;;;;;;20.40;69.00;;;;;;5053294;28;20040;-78
2021/10/05 01:11:48;;;;;;;5.22;2.40;;;20.40;68.90;;;;;;5052930;28;19905;-75
2021/10/05 01:14:14;;;;;;;8.05;3.05;;;20.40;67.50;;;;;;5052764;28;20060;-76
2021/10/05 01:16:40;;;;;;;6.63;3.10;;;20.40;68.10;;;;;;5052607;28;20045;-76
2021/10/05 01:19:06;;;;;;;5.70;2.42;;;20.30;68.30;;;;;;5052794;28;20439;-77
2021/10/05 01:21:32;;;;;;;6.45;2.72;;;20.30;68.90;;;;;;5052795;28;20086;-78
2021/10/05 01:24:09;;;;;;;7.18;2.88;;;20.30;68.90;;;;;;5053051;28;20059;-79
2021/10/05 01:26:35;;;;;;;6.38;3.08;;;20.40;68.90;;;;;;5052846;28;20113;-77
2021/10/05 01:29:02;;;;;;;7.30;2.72;;;20.20;68.30;;;;;;5052959;28;20374;-76
2021/10/05 01:31:49;;;;;;;9.65;2.67;;;20.30;68.80;;;;;;5052516;28;20021;-75
2021/10/05 01:34:16;;;;;;;7.97;2.80;;;20.10;69.30;;;;;;5052544;28;20021;-75
2021/10/05 01:36:42;;;;;;;6.32;2.80;;;20.10;69.20;;;;;;5055955;28;20033;-75
2021/10/05 01:39:24;;;;;;;9.27;2.65;;;20.00;69.30;;;;;;5056481;28;20530;-75
2021/10/05 01:41:52;;;;;;;8.25;3.17;;;20.00;69.80;;;;;;5056385;28;20063;-76
2021/10/05 01:44:18;;;;;;;8.50;2.70;;;20.10;70.20;;;;;;5056271;28;20067;-77
2021/10/05 01:46:44;;;;;;;7.20;3.13;;;20.20;70.20;;;;;;5056370;28;20415;-74
2021/10/05 01:49:14;;;;;;;10.68;2.95;;;20.20;70.10;;;;;;5056190;28;20115;-75
2021/10/05 01:51:40;;;;;;;6.93;2.90;;;20.30;70.80;;;;;;5056198;28;20091;-74
2021/10/05 01:54:06;;;;;;;9.82;3.00;;;20.20;70.30;;;;;;5056177;28;20053;-77
2021/10/05 01:56:32;;;;;;;7.07;3.35;;;20.20;70.40;;;;;;5088263;28;20482;-78
2021/10/05 01:58:57;;;;;;;6.30;3.13;;;20.20;70.50;;;;;;5056856;28;20033;-79
2021/10/05 02:01:23;;;;;;;8.10;3.22;;;20.20;70.30;;;;;;5054789;28;20021;-75
2021/10/05 02:03:48;;;;;;;7.55;2.90;;;20.20;70.40;;;;;;5055973;28;20104;-74
2021/10/05 02:06:14;;;;;;;7.85;3.60;;;20.20;70.50;;;;;;5055993;28;20017;-73
2021/10/05 02:08:40;;;;;;;8.18;3.90;;;20.20;70.50;;;;;;5087852;28;20029;-74
2021/10/05 02:11:05;;;;;;;8.13;3.40;;;20.20;70.20;;;;;;5055995;28;20029;-76
2021/10/05 02:13:31;;;;;;;8.43;3.40;;;20.30;70.30;;;;;;5056389;28;20021;-74
2021/10/05 02:15:57;;;;;;;11.00;3.15;;;20.30;70.00;;;;;;5055836;28;20021;-75
2021/10/05 02:18:23;;;;;;;9.48;3.50;;;20.30;70.00;;;;;;5056294;28;20441;-77
2021/10/05 02:20:49;;;;;;;7.38;3.45;;;20.30;70.00;;;;;;5058427;28;20021;-75
2021/10/05 02:23:14;;;;;;;10.27;3.70;;;20.30;70.50;;;;;;5057997;28;20032;-74
2021/10/05 02:25:40;;;;;;;9.18;3.83;;;20.40;69.90;;;;;;5055847;28;20403;-74
2021/10/05 02:28:06;;;;;;;8.45;3.28;;;20.40;69.70;;;;;;5056076;28;20036;-73
2021/10/05 02:30:31;;;;;;;8.07;3.45;;;20.40;70.30;;;;;;5056063;28;20025;-76
2021/10/05 02:32:57;;;;;;;6.35;3.65;;;20.40;70.20;;;;;;5055789;28;20363;-76
2021/10/05 02:35:23;;;;;;;6.85;3.47;;;20.40;70.50;;;;;;5056369;28;20025;-75
2021/10/05 02:37:49;;;;;;;6.45;3.30;;;20.40;70.40;;;;;;5056010;28;20025;-75
2021/10/05 02:40:15;;;;;;;6.25;3.40;;;20.40;70.50;;;;;;5055743;28;20024;-75
2021/10/05 02:42:41;;;;;;;6.70;3.42;;;20.40;70.50;;;;;;5055522;28;20036;-76
2021/10/05 02:45:08;;;;;;;7.47;3.40;;;20.40;72.20;;;;;;5056303;28;20212;-74
2021/10/05 02:47:34;;;;;;;7.65;3.55;;;20.40;71.40;;;;;;5054800;28;20021;-75
2021/10/05 02:49:59;;;;;;;9.30;3.88;;;20.40;70.50;;;;;;5055192;28;20033;-74
2021/10/05 02:52:25;;;;;;;8.20;3.60;;;20.40;71.00;;;;;;5055474;28;20101;-76
2021/10/05 02:54:51;;;;;;;7.70;3.60;;;20.40;70.80;;;;;;5055053;28;20064;-73
2021/10/05 02:57:20;;;;;;;7.72;3.70;;;20.40;71.20;;;;;;5055316;28;20091;-74
2021/10/05 02:59:46;;;;;;;8.48;3.90;;;20.40;71.10;;;;;;5055005;28;20032;-74
2021/10/05 03:02:13;;;;;;;11.27;3.92;;;20.40;71.50;;;;;;5054860;28;20474;-74
2021/10/05 03:04:40;;;;;;;7.47;3.60;;;20.30;71.40;;;;;;5054929;28;20021;-74
2021/10/05 03:07:06;;;;;;;9.27;3.88;;;20.30;71.60;;;;;;5054994;28;20075;-74
2021/10/05 03:09:32;;;;;;;8.73;3.78;;;20.30;71.30;;;;;;5054597;28;20025;-75
2021/10/05 03:11:58;;;;;;;7.40;3.50;;;20.30;71.50;;;;;;5054797;28;20028;-74
2021/10/05 03:14:24;;;;;;;7.03;3.70;;;20.20;71.70;;;;;;5055108;28;20021;-76
2021/10/05 03:16:50;;;;;;;9.95;4.43;;;20.20;71.80;;;;;;5054506;28;20410;-75
2021/10/05 03:19:15;;;;;;;7.05;3.90;;;20.20;72.00;;;;;;5054747;28;20029;-75
2021/10/05 03:21:41;;;;;;;7.70;4.00;;;20.20;72.60;;;;;;5054568;28;20025;-76
2021/10/05 03:24:08;;;;;;;8.77;4.30;;;20.20;72.40;;;;;;5054411;28;20395;-75
2021/10/05 03:26:34;;;;;;;8.27;3.97;;;20.20;72.70;;;;;;5053055;28;20032;-76
2021/10/05 03:29:00;;;;;;;12.52;4.13;;;20.20;72.90;;;;;;5054266;28;20082;-76
2021/10/05 03:31:26;;;;;;;9.52;4.28;;;20.20;72.80;;;;;;5054426;28;20056;-75
2021/10/05 03:33:52;;;;;;;5.93;3.70;;;20.30;72.50;;;;;;5054428;28;20021;-76
2021/10/05 03:36:17;;;;;;;11.43;4.05;;;20.30;72.70;;;;;;5054203;28;20029;-77
2021/10/05 03:38:44;;;;;;;7.05;3.78;;;20.30;72.40;;;;;;5054062;28;20088;-78
2021/10/05 03:41:10;;;;;;;6.88;3.70;;;20.40;72.70;;;;;;5054173;28;20129;-75
2021/10/05 03:43:37;;;;;;;10.30;4.43;;;20.40;72.70;;;;;;5054138;28;20082;-76
2021/10/05 03:46:03;;;;;;;9.27;4.65;;;20.40;73.40;;;;;;5053955;28;20025;-76
2021/10/05 03:48:29;;;;;;;7.63;3.92;;;20.40;77.60;;;;;;5052617;28;20029;-75
2021/10/05 03:50:55;;;;;;;8.43;3.78;;;20.40;76.00;;;;;;5053894;28;20036;-76
2021/10/05 03:53:21;;;;;;;6.60;4.00;;;20.50;77.40;;;;;;5054074;28;20024;-75
2021/10/05 03:55:52;;;;;;;9.40;4.65;;;20.50;77.40;;;;;;5085643;28;20028;-76
2021/10/05 03:58:20;;;;;;;8.45;4.38;;;20.60;78.60;;;;;;5053621;28;20374;-76
2021/10/05 04:00:46;;;;;;;10.02;4.50;;;20.50;72.50;;;;;;5053728;28;20063;-75
2021/10/05 04:03:12;;;;;;;9.30;4.25;;;20.50;72.80;;;;;;5053568;28;20035;-74
2021/10/05 04:05:38;;;;;;;8.23;3.97;;;20.50;73.70;;;;;;5053771;28;20029;-76
2021/10/05 04:08:04;;;;;;;9.35;5.70;;;20.40;73.90;;;;;;5053309;28;20047;-74
2021/10/05 04:10:30;;;;;;;9.50;4.47;;;20.40;74.40;;;;;;5053602;28;20033;-75
2021/10/05 04:12:56;;;;;;;10.27;5.25;;;20.50;77.40;;;;;;5053581;28;20025;-76
2021/10/05 04:15:22;;;;;;;10.70;5.85;;;20.50;77.90;;;;;;5053677;28;20031;-78
2021/10/05 04:17:47;;;;;;;7.85;4.45;;;20.50;77.50;;;;;;5053143;28;20045;-76
2021/10/05 04:20:13;;;;;;;11.55;5.90;;;20.50;78.40;;;;;;5053556;28;20028;-75
2021/10/05 04:22:39;;;;;;;7.90;5.03;;;20.60;78.30;;;;;;5053438;28;20461;-76
2021/10/05 04:25:06;;;;;;;10.75;7.55;;;20.60;78.20;;;;;;5053380;28;20021;-75
2021/10/05 04:27:36;;;;;;;10.50;5.88;;;20.60;77.60;;;;;;5053420;28;20028;-75
2021/10/05 04:30:05;;;;;;;10.77;5.45;;;20.60;80.10;;;;;;5053351;28;20048;-74
2021/10/05 04:32:30;;;;;;;13.45;5.22;;;20.60;80.10;;;;;;5052147;28;20051;-75
2021/10/05 04:34:56;;;;;;;9.02;4.80;;;20.60;79.90;;;;;;5053154;28;20466;-79
2021/10/05 04:37:22;;;;;;;10.40;5.25;;;20.60;79.70;;;;;;5085456;28;20029;-75
2021/10/05 04:39:47;;;;;;;8.88;4.75;;;20.70;80.50;;;;;;5052986;28;20027;-76
2021/10/05 04:42:13;;;;;;;12.55;6.80;;;20.70;80.40;;;;;;5053130;28;20054;-75
2021/10/05 04:44:39;;;;;;;9.70;5.18;;;20.70;80.80;;;;;;5053147;28;20489;-75
2021/10/05 04:47:04;;;;;;;10.55;5.15;;;20.70;80.80;;;;;;5052978;28;20440;-75
2021/10/05 04:49:31;;;;;;;18.38;10.50;;;20.80;80.60;;;;;;5052990;28;20036;-75
2021/10/05 04:51:56;;;;;;;10.20;4.97;;;20.70;81.40;;;;;;5052954;28;20486;-75
2021/10/05 04:54:22;;;;;;;8.57;4.90;;;20.70;80.80;;;;;;5052979;28;20071;-76
2021/10/05 04:56:49;;;;;;;8.65;4.43;;;20.70;77.00;;;;;;5051966;28;20496;-75
2021/10/05 04:59:16;;;;;;;10.18;4.90;;;20.70;77.70;;;;;;5053273;28;20425;-78
2021/10/05 05:01:42;;;;;;;9.60;5.70;;;20.70;79.30;;;;;;5053333;28;20033;-74
2021/10/05 05:04:09;;;;;;;10.02;4.85;;;20.80;77.50;;;;;;5053426;28;20074;-76
2021/10/05 05:06:34;;;;;;;5.85;4.15;;;20.80;78.20;;;;;;5053340;28;20025;-75
2021/10/05 05:09:00;;;;;;;9.48;4.75;;;20.80;78.20;;;;;;5052956;28;20131;-78
2021/10/05 05:11:26;;;;;;;8.50;4.90;;;20.90;76.60;;;;;;5055988;28;20025;-75
2021/10/05 05:13:52;;;;;;;8.32;4.32;;;20.90;77.90;;;;;;5057227;28;20492;-75
2021/10/05 05:16:17;;;;;;;8.20;3.83;;;20.90;78.90;;;;;;5056891;28;20042;-76
2021/10/05 05:18:43;;;;;;;7.65;4.22;;;20.90;78.50;;;;;;5057086;28;20029;-76
2021/10/05 05:21:09;;;;;;;10.20;5.10;;;21.00;80.60;;;;;;5057224;28;20153;-74
2021/10/05 05:23:35;;;;;;;7.90;4.18;;;21.00;77.40;;;;;;5056797;28;20113;-76
2021/10/05 05:26:01;;;;;;;10.18;4.50;;;21.00;80.20;;;;;;5057076;28;20033;-77
2021/10/05 05:28:26;;;;;;;11.02;5.60;;;21.00;79.10;;;;;;5057183;28;20053;-75
2021/10/05 05:30:52;;;;;;;8.55;4.93;;;21.00;80.50;;;;;;5057017;28;20151;-75
2021/10/05 05:33:18;;;;;;;11.00;4.95;;;21.00;81.20;;;;;;5056906;28;20025;-74
2021/10/05 05:35:45;;;;;;;9.98;5.13;;;21.10;80.90;;;;;;5057508;28;20033;-77
2021/10/05 05:38:11;;;;;;;9.45;5.53;;;21.10;81.90;;;;;;5058248;28;20029;-78
2021/10/05 05:40:37;;;;;;;9.18;5.28;;;21.10;76.90;;;;;;5057357;28;20025;-75
2021/10/05 05:43:03;;;;;;;11.80;5.97;;;21.10;76.30;;;;;;5058025;28;20032;-79
2021/10/05 05:45:30;;;;;;;10.85;6.03;;;21.10;76.30;;;;;;5057690;28;20397;-77
2021/10/05 05:47:56;;;;;;;11.25;5.32;;;21.10;76.30;;;;;;5056582;28;20055;-75
2021/10/05 05:50:22;;;;;;;10.98;5.68;;;21.10;76.30;;;;;;5056228;28;20477;-76
2021/10/05 05:52:47;;;;;;;11.00;6.05;;;21.10;76.30;;;;;;5057029;28;20113;-68
2021/10/05 05:55:15;;;;;;;10.07;5.55;;;21.10;76.40;;;;;;5056257;28;20478;-71
2021/10/05 05:57:42;;;;;;;11.88;6.28;;;21.10;76.30;;;;;;5056363;28;20348;-75
2021/10/05 06:00:08;;;;;;;12.18;5.85;;;21.10;76.40;;;;;;5059931;28;20029;-69
2021/10/05 06:02:34;;;;;;;14.98;6.30;;;21.10;77.30;;;;;;5058257;28;20029;-72
2021/10/05 06:05:00;;;;;;;13.77;6.95;;;21.10;76.40;;;;;;5058135;28;20025;-71
2021/10/05 06:07:26;;;;;;;12.55;6.85;;;21.00;76.70;;;;;;5056575;28;20053;-70
2021/10/05 06:09:51;;;;;;;13.40;6.03;;;21.00;77.00;;;;;;5056644;28;20032;-68
2021/10/05 06:12:20;;;;;;;14.77;6.50;;;21.00;76.70;;;;;;5056568;28;20028;-68
2021/10/05 06:14:46;;;;;;;21.40;9.02;;;20.90;76.70;;;;;;5054285;28;20067;-74
2021/10/05 06:17:12;;;;;;;12.75;6.88;;;20.90;76.40;;;;;;5037019;28;20049;-70
2021/10/05 06:19:38;;;;;;;15.90;5.60;;;21.00;76.70;;;;;;5055546;28;20039;-73
2021/10/05 06:22:05;;;;;;;17.48;6.55;;;20.90;75.70;;;;;;5055387;28;20535;-69
2021/10/05 06:24:30;;;;;;;11.18;6.43;;;20.90;75.70;;;;;;5055500;28;20053;-69
2021/10/05 06:26:56;;;;;;;12.70;5.97;;;20.90;75.30;;;;;;5054953;28;20052;-73
2021/10/05 06:29:22;;;;;;;10.93;5.35;;;20.80;75.30;;;;;;5054858;28;20037;-67
2021/10/05 06:31:48;;;;;;;10.43;5.72;;;20.80;75.20;;;;;;5054610;28;20074;-67
2021/10/05 06:34:14;;;;;;;11.13;5.55;;;20.80;75.20;;;;;;5055432;28;20029;-68
2021/10/05 06:36:40;;;;;;;12.25;5.90;;;20.80;75.50;;;;;;5055120;28;20021;-68
2021/10/05 06:39:06;;;;;;;13.88;5.85;;;20.70;75.30;;;;;;5054833;28;20031;-69
2021/10/05 06:41:32;;;;;;;13.30;6.47;;;20.80;75.30;;;;;;5054866;28;20036;-68
2021/10/05 06:43:57;;;;;;;13.93;5.97;;;20.80;75.20;;;;;;5054767;28;20431;-67
2021/10/05 06:46:24;;;;;;;11.73;5.88;;;20.80;75.30;;;;;;5054918;28;20025;-71
2021/10/05 06:48:49;;;;;;;17.80;6.95;;;20.90;75.50;;;;;;5055059;28;20398;-67
2021/10/05 06:51:15;;;;;;;14.38;6.55;;;20.90;75.50;;;;;;5054968;28;20013;-64
2021/10/05 06:53:41;;;;;;;16.02;7.55;;;21.00;75.60;;;;;;5054577;28;20029;-65
2021/10/05 06:56:06;;;;;;;13.45;6.45;;;21.00;75.30;;;;;;5054592;28;20028;-70
2021/10/05 06:58:33;;;;;;;13.10;6.20;;;21.10;75.40;;;;;;5055079;28;20021;-68
2021/10/05 07:00:59;;;;;;;18.00;8.20;;;21.10;75.10;;;;;;5054579;28;20539;-67
2021/10/05 07:03:24;;;;;;;16.52;8.60;;;21.10;75.80;;;;;;5054743;28;20025;-66
2021/10/05 07:05:51;;;;;;;12.90;7.75;;;21.10;76.00;;;;;;5054609;28;20028;-72
2021/10/05 07:08:17;;;;;;;16.73;7.63;;;21.10;76.30;;;;;;5054741;28;20032;-65
2021/10/05 07:10:43;;;;;;;14.48;6.85;;;21.10;76.20;;;;;;5054721;28;20531;-67
2021/10/05 07:13:09;;;;;;;15.45;6.78;;;21.10;75.80;;;;;;5054857;28;20032;-65
2021/10/05 07:15:35;;;;;;;18.48;6.68;;;21.10;75.30;;;;;;5054608;28;20036;-66
2021/10/05 07:18:01;;;;;;;15.65;6.13;;;21.10;75.10;;;;;;5054200;28;20052;-64
2021/10/05 07:20:28;;;;;;;11.25;5.50;;;21.20;74.70;;;;;;5054711;28;20033;-64
2021/10/05 07:22:54;;;;;;;13.05;6.25;;;21.10;74.30;;;;;;5054686;28;20025;-65
2021/10/05 07:25:20;;;;;;;16.58;6.30;;;21.10;74.50;;;;;;5054483;28;20044;-64
2021/10/05 07:27:50;;;;;;;11.68;6.10;;;21.10;74.30;;;;;;5053172;28;20020;-63
2021/10/05 07:30:23;;;;;;;19.08;6.70;;;21.10;74.40;;;;;;5054216;28;20091;-64
2021/10/05 07:32:53;;;;;;;12.30;5.30;;;21.10;74.50;;;;;;5053561;28;20106;-64
2021/10/05 07:35:19;;;;;;;7.93;4.57;;;21.10;73.70;;;;;;5053966;28;20036;-64
2021/10/05 07:37:45;;;;;;;12.20;4.53;;;21.10;73.60;;;;;;5053772;28;20017;-64
2021/10/05 07:40:15;;;;;;;14.70;6.20;;;21.10;73.30;;;;;;5053927;28;20111;-63
2021/10/05 07:42:41;;;;;;;13.23;6.25;;;21.00;73.40;;;;;;5053719;28;20035;-64
2021/10/05 07:45:07;;;;;;;18.90;7.32;;;21.00;73.50;;;;;;5053848;28;20029;-64
2021/10/05 07:47:32;;;;;;;13.50;7.00;;;21.00;74.50;;;;;;5054123;28;20464;-64
2021/10/05 07:49:58;;;;;;;22.48;7.07;;;20.90;74.90;;;;;;5053736;28;20037;-64
2021/10/05 07:52:24;;;;;;;12.02;6.43;;;21.00;75.20;;;;;;5053834;28;20446;-64
2021/10/05 07:54:49;;;;;;;13.38;6.28;;;21.00;75.40;;;;;;5053547;28;20025;-65
2021/10/05 07:57:15;;;;;;;16.17;6.03;;;21.00;75.30;;;;;;5053376;28;20021;-64
2021/10/05 07:59:41;;;;;;;9.77;5.88;;;20.90;75.50;;;;;;5053333;28;20022;-64
2021/10/05 08:02:07;;;;;;;11.73;6.03;;;20.90;75.80;;;;;;5053242;28;20032;-63
2021/10/05 08:04:32;;;;;;;14.57;6.45;;;20.80;75.90;;;;;;5051794;28;20037;-65
2021/10/05 08:06:58;;;;;;;12.75;6.72;;;20.70;76.60;;;;;;5053175;28;20086;-64
2021/10/05 08:09:24;;;;;;;13.40;5.78;;;20.70;76.80;;;;;;5053252;28;20327;-66
2021/10/05 08:11:50;;;;;;;13.18;6.72;;;20.80;77.50;;;;;;5053082;28;20071;-64
2021/10/05 08:14:16;;;;;;;12.75;6.45;;;20.80;77.60;;;;;;5053167;28;20028;-67
2021/10/05 08:16:41;;;;;;;12.93;5.07;;;20.80;77.50;;;;;;5052872;28;20119;-64
2021/10/05 08:19:07;;;;;;;12.60;6.25;;;20.80;78.00;;;;;;5053103;28;20159;-63
2021/10/05 08:21:33;;;;;;;12.27;6.20;;;20.70;78.00;;;;;;5053055;28;20075;-65
2021/10/05 08:23:59;;;;;;;12.25;6.20;;;20.60;78.40;;;;;;5052887;28;20385;-64
2021/10/05 08:26:25;;;;;;;11.10;6.30;;;20.60;78.50;;;;;;5052955;28;20088;-63
2021/10/05 08:28:51;;;;;;;12.90;5.88;;;20.60;79.00;;;;;;5052949;28;20025;-64
2021/10/05 08:31:19;;;;;;;14.77;5.97;;;20.60;79.60;;;;;;5053366;28;20036;-64
2021/10/05 08:33:47;;;;;;;13.25;5.88;;;20.60;80.90;;;;;;5052902;28;20100;-64
2021/10/05 08:36:13;;;;;;;16.60;7.00;;;20.60;80.40;;;;;;5052714;28;20343;-64
2021/10/05 08:38:40;;;;;;;14.80;6.60;;;20.60;80.60;;;;;;5052637;28;20025;-64
2021/10/05 08:41:06;;;;;;;13.27;6.47;;;20.70;80.90;;;;;;5053231;28;20083;-65
2021/10/05 08:43:33;;;;;;;11.80;5.53;;;20.80;81.10;;;;;;5052945;28;20036;-66
2021/10/05 08:45:59;;;;;;;11.13;5.55;;;20.80;80.90;;;;;;5052449;28;20107;-68
2021/10/05 08:48:29;;;;;;;17.48;6.10;;;20.90;81.10;;;;;;5052834;28;20033;-69
2021/10/05 08:50:55;;;;;;;10.85;5.45;;;20.90;81.70;;;;;;5053067;28;20025;-66
2021/10/05 08:53:20;;;;;;;9.43;4.53;;;20.90;81.50;;;;;;5052595;28;20025;-71
2021/10/05 08:55:46;;;;;;;11.02;6.03;;;20.90;81.60;;;;;;5052794;28;20051;-67
2021/10/05 08:58:12;;;;;;;11.85;5.57;;;20.90;82.20;;;;;;5053111;28;20025;-66
2021/10/05 09:00:38;;;;;;;10.48;5.45;;;20.90;82.50;;;;;;5052879;28;20036;-63
2021/10/05 09:03:04;;;;;;;8.35;4.40;;;20.90;83.30;;;;;;5052804;28;20021;-63
2021/10/05 09:05:30;;;;;;;12.23;5.00;;;20.80;83.40;;;;;;5052616;28;20512;-67
2021/10/05 09:07:57;;;;;;;11.85;4.68;;;20.80;83.80;;;;;;5053493;28;20021;-66
2021/10/05 09:10:30;;;;;;;14.05;4.68;;;20.80;84.10;;;;;;5053010;28;20107;-64
2021/10/05 09:12:57;;;;;;;10.52;4.53;;;20.80;84.80;;;;;;5052339;28;20455;-64
2021/10/05 09:15:22;;;;;;;9.35;4.50;;;20.70;85.20;;;;;;5052546;28;20017;-65
2021/10/05 09:17:57;;;;;;;8.57;4.15;;;20.80;85.30;;;;;;5052208;28;20409;-65
2021/10/05 09:20:29;;;;;;;7.95;4.18;;;20.70;86.00;;;;;;5052454;28;20470;-65
2021/10/05 09:22:59;;;;;;;13.18;3.85;;;20.70;86.40;;;;;;5050915;28;20025;-64
2021/10/05 09:25:31;;;;;;;8.98;4.07;;;20.80;86.20;;;;;;5052333;28;20025;-66
2021/10/05 09:27:58;;;;;;;9.40;3.97;;;20.80;85.80;;;;;;5052203;28;20095;-65
2021/10/05 09:30:25;;;;;;;8.57;4.22;;;20.90;86.10;;;;;;5052109;28;20482;-64
2021/10/05 09:33:02;;;;;;;12.05;4.03;;;20.80;85.80;;;;;;5052097;28;20033;-65
2021/10/05 09:35:47;;;;;;;10.85;4.13;;;20.80;85.90;;;;;;5052257;28;20021;-65
2021/10/05 09:38:20;;;;;;;10.38;3.60;;;20.80;85.60;;;;;;5052468;28;20381;-65
2021/10/05 09:40:56;;;;;;;7.35;3.88;;;20.80;85.60;;;;;;5052322;28;20017;-64
2021/10/05 09:43:23;;;;;;;7.32;3.25;;;20.90;85.70;;;;;;5051996;28;20036;-65
2021/10/05 09:45:49;;;;;;;7.63;3.28;;;20.90;85.70;;;;;;5052208;28;20052;-68
2021/10/05 09:48:16;;;;;;;6.68;3.40;;;20.80;85.90;;;;;;5052245;28;20059;-64
2021/10/05 09:50:42;;;;;;;10.40;3.45;;;20.80;86.60;;;;;;5052425;28;20104;-66
2021/10/05 09:53:12;;;;;;;8.20;3.17;;;20.90;86.40;;;;;;5052094;28;20051;-66
2021/10/05 09:55:40;;;;;;;10.40;3.25;;;21.10;85.90;;;;;;5051613;28;20478;-64
2021/10/05 09:58:07;;;;;;;9.07;3.58;;;21.30;85.20;;;;;;5055686;28;20338;-65
2021/10/05 10:00:36;;;;;;;5.53;2.63;;;21.40;85.00;;;;;;5055643;28;20017;-63
2021/10/05 10:03:08;;;;;;;6.20;2.97;;;21.50;84.90;;;;;;5055834;28;20535;-71
2021/10/05 10:05:37;;;;;;;8.23;2.83;;;21.60;84.50;;;;;;5055557;28;20029;-72
2021/10/05 10:08:03;;;;;;;7.40;3.00;;;21.60;84.20;;;;;;5055639;28;20025;-70
2021/10/05 10:10:32;;;;;;;9.02;2.50;;;21.70;84.70;;;;;;5056227;28;20501;-74
2021/10/05 10:13:05;;;;;;;11.88;3.42;;;21.70;84.40;;;;;;5054334;28;20025;-72
2021/10/05 10:15:34;;;;;;;10.23;3.13;;;21.80;85.00;;;;;;5055116;28;20052;-65
2021/10/05 10:18:15;;;;;;;9.45;3.88;;;22.00;83.60;;;;;;5055367;28;20641;-64
2021/10/05 10:20:44;;;;;;;9.35;4.35;;;22.10;82.80;;;;;;5055279;28;20527;-65
2021/10/05 10:23:18;;;;;;;8.80;4.25;;;22.20;82.10;;;;;;5055174;28;20025;-65
2021/10/05 10:26:00;;;;;;;8.43;3.85;;;22.40;81.60;;;;;;5055055;28;20548;-67
2021/10/05 10:28:30;;;;;;;11.10;5.05;;;22.60;82.10;;;;;;5055009;28;20508;-65
2021/10/05 10:31:01;;;;;;;9.48;5.05;;;22.70;79.60;;;;;;5055059;28;20037;-69
2021/10/05 10:33:28;;;;;;;11.18;4.93;;;22.90;79.20;;;;;;5054689;28;20086;-64
2021/10/05 10:35:56;;;;;;;10.85;4.60;;;23.00;78.30;;;;;;5054704;28;20540;-67
2021/10/05 10:38:25;;;;;;;13.18;5.38;;;23.10;78.30;;;;;;5054778;28;20078;-66
2021/10/05 10:40:50;;;;;;;11.85;5.22;;;23.10;77.60;;;;;;5054963;28;20470;-64
2021/10/05 10:43:20;;;;;;;10.43;5.93;;;23.30;77.60;;;;;;5054999;28;20048;-64
2021/10/05 10:45:58;;;;;;;12.05;6.80;;;23.30;76.50;;;;;;5054554;28;20117;-66
2021/10/05 10:48:27;;;;;;;10.70;5.57;;;23.50;77.30;;;;;;5055168;28;20029;-65
2021/10/05 10:50:55;;;;;;;9.30;4.97;;;23.60;75.80;;;;;;5055372;28;20429;-65
2021/10/05 10:53:31;;;;;;;13.32;5.30;;;23.70;75.10;;;;;;5054916;28;20035;-66
2021/10/05 10:55:57;;;;;;;10.05;5.78;;;23.80;74.80;;;;;;5054641;28;20029;-66
2021/10/05 10:58:41;;;;;;;9.43;5.43;;;23.90;74.40;;;;;;5054846;28;20029;-65
2021/10/05 11:01:08;;;;;;;;;;;24.00;73.80;;;;;;5055195;28;20044;-67
2021/10/05 11:03:34;;;;;;;18.17;10.90;;;24.10;73.20;;;;;;5054518;28;19912;-64
2021/10/05 11:06:00;;;;;;;10.98;6.22;;;24.20;73.30;;;;;;5054378;28;20017;-66
2021/10/05 11:08:26;;;;;;;8.25;4.88;;;24.20;72.80;;;;;;5053209;28;20085;-66
2021/10/05 11:10:52;;;;;;;8.55;4.95;;;24.20;73.30;;;;;;5054346;28;20052;-64
2021/10/05 11:13:18;;;;;;;7.00;4.45;;;24.30;73.10;;;;;;5054211;28;20029;-66
2021/10/05 11:15:48;;;;;;;8.90;4.72;;;24.30;72.80;;;;;;5054908;28;20056;-64
2021/10/05 11:18:14;;;;;;;7.82;4.10;;;24.40;73.10;;;;;;5054200;28;20144;-65
2021/10/05 11:20:59;;;;;;;7.55;4.40;;;24.40;73.20;;;;;;5054183;28;20114;-64
2021/10/05 11:23:26;;;;;;;8.48;3.70;;;24.50;71.30;;;;;;5054161;28;20020;-65
2021/10/05 11:25:57;;;;;;;9.32;4.22;;;24.70;71.10;;;;;;5053989;28;20052;-66
2021/10/05 11:28:29;;;;;;;9.02;4.85;;;24.80;70.60;;;;;;5054139;28;20029;-65
2021/10/05 11:31:00;;;;;;;8.18;4.60;;;24.80;70.80;;;;;;5053652;28;20390;-65
2021/10/05 11:33:29;;;;;;;12.27;4.97;;;24.80;70.30;;;;;;5053605;28;20053;-67
2021/10/05 11:35:59;;;;;;;14.45;4.43;;;24.80;70.50;;;;;;5053355;28;20417;-64
2021/10/05 11:38:37;;;;;;;10.02;3.50;;;24.80;70.20;;;;;;5053773;28;20086;-65
2021/10/05 11:41:05;;;;;;;9.10;3.75;;;24.70;70.00;;;;;;5054024;28;20025;-64
2021/10/05 11:43:38;;;;;;;9.18;4.00;;;24.70;69.90;;;;;;5053735;28;20037;-64
2021/10/05 11:46:28;;;;;;;8.85;3.13;;;24.70;69.70;;;;;;5053590;28;20052;-66
2021/10/05 11:48:56;;;;;;;10.48;4.07;;;24.60;69.10;;;;;;5053776;28;20043;-65
2021/10/05 11:51:24;;;;;;;9.45;3.67;;;24.70;69.30;;;;;;5052912;28;20129;-66
2021/10/05 11:53:50;;;;;;;10.07;3.45;;;24.70;69.20;;;;;;5053677;28;20025;-68
2021/10/05 11:56:18;;;;;;;8.90;3.85;;;24.70;68.60;;;;;;5053422;28;20520;-66
2021/10/05 11:58:55;;;;;;;10.25;3.80;;;24.80;68.60;;;;;;5053348;28;20013;-68
2021/10/05 12:01:27;;;;;;;13.88;6.20;;;24.90;67.50;;;;;;5053298;28;20029;-65
2021/10/05 12:04:08;;;;;;;13.10;3.47;;;24.90;67.80;;;;;;5053606;28;20025;-65
2021/10/05 12:06:39;;;;;;;10.90;3.10;;;24.90;67.50;;;;;;5053595;28;20036;-66
2021/10/05 12:09:07;;;;;;;10.68;3.33;;;24.90;67.30;;;;;;5053382;28;20040;-65
2021/10/05 12:11:40;;;;;;;8.43;2.65;;;24.90;67.30;;;;;;5053040;28;20511;-66
2021/10/05 12:14:08;;;;;;;10.23;3.60;;;24.90;66.60;;;;;;5053773;28;20340;-64
2021/10/05 12:16:33;;;;;;;7.72;3.15;;;24.90;67.10;;;;;;5052698;28;20473;-67
2021/10/05 12:19:00;;;;;;;8.90;2.92;;;24.80;67.30;;;;;;5052426;28;20079;-66
2021/10/05 12:21:26;;;;;;;8.18;2.83;;;24.90;67.10;;;;;;5052839;28;20470;-65
2021/10/05 12:23:55;;;;;;;11.45;3.40;;;25.00;67.20;;;;;;5052755;28;20029;-65
2021/10/05 12:26:21;;;;;;;8.60;3.22;;;25.10;66.90;;;;;;5052985;28;20354;-65
2021/10/05 12:29:14;;;;;;;11.95;3.13;;;25.20;66.60;;;;;;5052973;28;20668;-66
2021/10/05 12:31:39;;;;;;;16.95;3.33;;;25.30;66.30;;;;;;5051519;28;20431;-67
2021/10/05 12:34:07;;;;;;;10.60;2.70;;;25.40;66.20;;;;;;5053447;28;20031;-68
2021/10/05 12:36:35;;;;;;;10.90;3.33;;;25.40;65.70;;;;;;5051360;28;20496;-64
2021/10/05 12:39:13;;;;;;;10.15;2.67;;;25.40;64.90;;;;;;5034560;28;20038;-65
2021/10/05 12:41:39;;;;;;;12.63;2.22;;;25.40;64.20;;;;;;5052726;28;20031;-66
2021/10/05 12:44:15;;;;;;;8.52;2.20;;;25.30;63.80;;;;;;5052737;28;20112;-64